Terminal Aerodrome Forecast
Issued by NWS Paducah, KY

Home | Current Version | Previous Version | Graphics & Text | Print | Product List | Glossary On
Versions: 1 2 3 4 5 6 7 8 9 10 11 12 13 14 15 16 17 18 19
890
FTUS43 KPAH 230524
TAFPAH
TAF
KPAH 230524Z 2306/2406 35015G25KT P6SM OVC015
     FM230900 35012G22KT P6SM BKN025
     FM231900 34012KT P6SM SCT030
     FM240000 33004KT P6SM SKC=

USA.gov is the U.S. government's official web portal to all federal, state and local government web resources and services.